Terminal Aerodrome Forecast
Issued by NWS Sioux Falls, SD

Home | Current Version | Previous Version | Graphics & Text | Print | Product List | Glossary Off
Versions: 1 2 3 4 5 6 7 8 9 10 11 12

717
FTUS43 KFSD 212340
TAFFSD
TAF
KFSD 212340Z 2200/2224 VRB04KT P6SM FEW250
     FM220200 03005KT P6SM FEW200
     FM221100 05010KT P6SM SCT025 BKN040 PROB30 2214/2216 P6SM -SHRA
     FM221700 02011KT P6SM SCT050 BKN080
     FM222100 01009KT P6SM BKN040=

USA.gov is the U.S. government's official web portal to all federal, state and local government web resources and services.